Latest Weather Observations for PORTABLE RFSNSW10

IDN60801

Issued at 3:13 am EDT Friday 29 January 2021 (issued every 10 minutes, with the page automatically refreshed every 10 minutes)

About weather observations | Map of weather stations | Latest weather observations for NSW | Other Formats
Station Details ID: 250064 Name: PORTABLE RFSNSW10 Lat: -33.37 Lon: 150.75 Height: 282.0 m

Portable automatic weather stations (PAWS) are operated by other organisations, such as Fire and Emergency Services, and are included here by agreement. Portable stations may be deployed to a location for a short period and their location may be subject to change without notice. Wind observations from these stations are provided from heights of either three (3) or ten (10) metres above ground level (AGL).

Data from the previous 72 hours. | See also: Recent months for locations in New South Wales
Date/Time
EDT
Temp
°C
App
Temp
°C
Dew
Point
°C
Rel
Hum
%
Delta-T
°C
Wind Press
QNH
hPa
Press
MSL
hPa
Rain since
9am
mm
Dir  Spd
km/h
Gust
km/h
Spd
kts
Gust
kts
29/03:00am 16.6 18.0 16.5 99 0.1 SSW 4 6 2 3 - - 15.2
29/02:50am 16.6 18.0 16.5 99 0.1 S 4 7 2 4 - - 14.8
29/02:40am 16.6 18.0 16.5 99 0.1 SSW 4 7 2 4 - - 14.6
29/02:30am 16.6 17.7 16.5 99 0.1 SSW 6 7 3 4 - - 14.4
29/02:20am 16.6 18.0 16.5 99 0.1 S 4 7 2 4 - - 14.2
29/02:10am 16.6 17.7 16.5 99 0.1 S 6 7 3 4 - - 14.0
29/02:00am 16.6 18.0 16.5 99 0.1 SSW 4 6 2 3 - - 14.0
29/01:50am 16.7 18.1 16.5 99 0.1 SSW 4 6 2 3 - - 13.8
29/01:40am 16.7 17.8 16.5 99 0.1 SSW 6 6 3 3 - - 13.8
29/01:30am 16.7 18.2 16.6 99 0.1 SW 4 6 2 3 - - 13.8
29/01:20am 16.7 18.2 16.6 99 0.1 SW 4 7 2 4 - - 13.8
29/01:10am 16.7 18.1 16.5 99 0.1 S 4 7 2 4 - - 13.8
29/01:00am 16.7 18.2 16.6 99 0.1 SSW 4 6 2 3 - - 13.6
29/12:50am 16.7 17.8 16.6 99 0.1 SSW 6 6 3 3 - - 13.6
29/12:40am 16.7 18.2 16.6 99 0.1 SE 4 6 2 3 - - 13.6
29/12:30am 16.8 17.9 16.6 99 0.1 SSW 6 7 3 4 - - 13.6
29/12:20am 16.7 18.2 16.6 99 0.1 S 4 6 2 3 - - 13.6
29/12:10am 16.7 17.8 16.6 99 0.1 S 6 7 3 4 - - 13.6
29/12:00am 16.7 18.2 16.6 99 0.1 SE 4 6 2 3 - - 13.6
 
Date/Time
EDT
Temp
°C
App
Temp
°C
Dew
Point
°C
Rel
Hum
%
Delta-T
°C
Wind Press
QNH
hPa
Press
MSL
hPa
Rain since
9am
mm
Dir  Spd
km/h
Gust
km/h
Spd
kts
Gust
kts
28/11:50pm 16.7 18.1 16.5 99 0.1 SSE 4 7 2 4 - - 13.6
28/11:40pm 16.7 18.1 16.5 99 0.1 SE 4 7 2 4 - - 13.6
28/11:30pm 16.7 17.8 16.5 99 0.1 SSE 6 9 3 5 - - 13.4
28/11:20pm 16.7 18.1 16.5 99 0.1 SSE 4 6 2 3 - - 13.0
28/11:10pm 16.6 18.0 16.4 99 0.1 S 4 9 2 5 - - 12.8
28/11:00pm 16.6 17.7 16.5 99 0.1 S 6 11 3 6 - - 12.4
28/10:50pm 16.7 17.8 16.5 99 0.1 SSE 6 7 3 4 - - 12.4
28/10:40pm 16.7 17.8 16.5 99 0.1 S 6 9 3 5 - - 12.0
28/10:30pm 16.7 17.8 16.5 99 0.1 S 6 6 3 3 - - 11.8
28/10:20pm 16.6 17.7 16.5 99 0.1 SSW 6 7 3 4 - - 11.6
28/10:10pm 16.6 17.4 16.4 99 0.1 S 7 7 4 4 - - 11.2
28/10:00pm 16.6 17.6 16.4 99 0.1 S 6 11 3 6 - - 11.2
28/09:50pm 16.6 17.6 16.4 99 0.1 S 6 9 3 5 - - 11.0
28/09:40pm 16.7 17.5 16.4 98 0.2 SSW 7 9 4 5 - - 11.0
28/09:30pm 16.6 17.6 16.4 99 0.1 S 6 9 3 5 - - 11.0
28/09:20pm 16.7 17.7 16.4 98 0.2 S 6 9 3 5 - - 11.0
28/09:10pm 16.7 18.1 16.5 99 0.1 S 4 6 2 3 - - 11.0
28/09:00pm 16.6 17.6 16.4 99 0.1 S 6 6 3 3 - - 11.0
28/08:50pm 16.6 17.6 16.3 98 0.2 SSE 6 7 3 4 - - 10.8
28/08:40pm 16.6 17.6 16.3 98 0.2 SSE 6 13 3 7 - - 10.8
28/08:30pm 16.6 17.6 16.3 98 0.2 SSW 6 7 3 4 - - 10.4
28/08:20pm 16.6 17.6 16.3 98 0.2 SSW 6 7 3 4 - - 9.8
28/08:10pm 16.5 17.4 16.2 98 0.2 S 6 7 3 4 - - 9.4
28/08:00pm 16.4 17.3 16.1 98 0.2 SSW 6 7 3 4 - - 9.0
28/07:50pm 16.4 17.3 16.1 98 0.2 SSW 6 9 3 5 - - 8.6
28/07:40pm 16.5 17.2 16.2 98 0.2 SSW 7 7 4 4 - - 8.6
28/07:30pm 16.6 17.5 16.2 97 0.2 SSW 6 7 3 4 - - 8.0
28/07:20pm 16.5 17.2 16.2 98 0.2 SSW 7 11 4 6 - - 7.8
28/07:10pm 16.5 17.4 16.1 97 0.2 S 6 9 3 5 - - 7.6
28/07:00pm 16.5 17.2 16.1 97 0.2 SSW 7 9 4 5 - - 7.4
28/06:50pm 16.6 17.3 16.2 97 0.2 S 7 9 4 5 - - 7.2
28/06:40pm 16.6 17.5 16.2 97 0.2 S 6 9 3 5 - - 7.0
28/06:30pm 16.5 17.2 16.0 97 0.3 S 7 11 4 6 - - 6.6
28/06:20pm 16.6 17.3 16.1 97 0.3 S 7 11 4 6 - - 6.6
28/06:10pm 16.8 17.2 16.2 96 0.4 SSW 9 13 5 7 - - 6.4
28/06:00pm 17.0 17.8 16.3 96 0.4 S 7 11 4 6 - - 6.4
28/05:50pm 17.2 18.1 16.5 96 0.4 S 7 9 4 5 - - 6.2
28/05:40pm 17.3 18.4 16.5 95 0.5 S 6 9 3 5 - - 6.0
28/05:30pm 17.4 18.3 16.5 94 0.5 S 7 9 4 5 - - 5.8
28/05:20pm 17.6 18.7 16.5 93 0.7 SSE 6 9 3 5 - - 5.6
28/05:10pm 17.8 18.7 16.5 92 0.8 S 7 11 4 6 - - 5.4
28/05:00pm 18.2 19.3 16.5 90 1.0 SSE 6 9 3 5 - - 5.4
28/04:50pm 19.0 19.9 16.2 84 1.7 SE 6 9 3 5 - - 5.2
28/04:40pm 19.2 20.5 16.1 82 1.9 SSE 4 6 2 3 - - 5.2
28/04:30pm 19.4 20.0 15.8 80 2.2 SSE 7 13 4 7 - - 5.2
28/04:20pm 19.9 20.8 16.0 78 2.4 SSE 6 7 3 4 - - 5.2
28/04:10pm 20.2 21.8 16.9 81 2.0 SSE 4 6 2 3 - - 5.2
28/04:00pm 20.0 21.4 16.5 80 2.1 SSE 4 7 2 4 - - 5.2
28/03:50pm 19.4 20.5 16.7 84 1.6 SSE 6 7 3 4 - - 5.2
28/03:40pm 18.9 20.5 17.0 89 1.2 S 4 6 2 3 - - 5.2
28/03:30pm 18.6 20.2 17.0 90 1.0 SSE 4 6 2 3 - - 5.2
28/03:20pm 18.4 19.7 17.2 93 0.7 S 6 7 3 4 - - 5.2
28/03:10pm 18.6 19.9 17.0 90 1.0 SSW 6 9 3 5 - - 5.2
28/03:00pm 18.7 20.0 17.1 90 1.0 S 6 9 3 5 - - 5.2
28/02:50pm 18.6 19.9 17.1 91 0.9 S 6 7 3 4 - - 5.2
28/02:40pm 18.4 20.1 17.2 93 0.7 S 4 7 2 4 - - 5.2
28/02:30pm 17.8 19.0 16.8 94 0.6 S 6 7 3 4 - - 5.2
28/02:20pm 17.5 18.4 16.6 94 0.5 S 7 9 4 5 - - 5.2
28/02:10pm 17.7 18.9 16.8 94 0.5 S 6 7 3 4 - - 5.0
28/02:00pm 18.0 19.3 17.1 94 0.6 S 6 7 3 4 - - 4.8
28/01:50pm 18.1 19.4 17.0 93 0.7 SE 6 7 3 4 - - 4.6
28/01:40pm 17.9 18.9 16.9 94 0.6 SSE 7 9 4 5 - - 4.6
28/01:30pm 18.1 19.2 17.0 93 0.7 SSE 7 11 4 6 - - 4.4
28/01:20pm 18.1 19.5 17.3 95 0.5 S 6 11 3 6 - - 4.4
28/01:10pm 17.8 18.4 16.8 94 0.6 S 9 11 5 6 - - 4.2
28/01:00pm 17.8 18.5 17.0 95 0.5 SSE 9 13 5 7 - - 4.2
28/12:50pm 18.0 19.1 17.2 95 0.5 SSE 7 13 4 7 - - 4.0
28/12:40pm 18.3 19.8 17.6 96 0.4 S 6 9 3 5 - - 3.8
28/12:30pm 18.2 19.7 17.5 96 0.4 SSE 6 9 3 5 - - 3.4
28/12:20pm 18.0 19.4 17.3 96 0.4 S 6 7 3 4 - - 3.4
28/12:10pm 17.8 18.9 17.2 96 0.4 S 7 11 4 6 - - 3.0
28/12:00pm 17.8 18.5 17.1 96 0.4 S 9 13 5 7 - - 2.6
28/11:50am 17.8 18.9 17.2 96 0.4 S 7 9 4 5 - - 2.2
28/11:40am 17.9 19.3 17.3 96 0.4 S 6 11 3 6 - - 1.6
28/11:30am 17.9 19.3 17.3 96 0.4 S 6 9 3 5 - - 1.0
28/11:20am 17.8 18.9 17.2 96 0.4 S 7 9 4 5 - - 0.8
28/11:10am 18.0 19.1 17.2 95 0.5 S 7 9 4 5 - - 0.6
28/11:00am 18.2 19.6 17.4 95 0.5 SE 6 9 3 5 - - 0.4
28/10:50am 18.1 19.3 17.3 95 0.5 SSE 7 9 4 5 - - 0.4
28/10:40am 18.0 19.4 17.3 96 0.4 S 6 7 3 4 - - 0.2
28/10:30am 18.1 19.3 17.3 95 0.5 S 7 9 4 5 - - 0.0
28/10:20am 18.1 19.2 17.2 94 0.6 S 7 9 4 5 - - 0.0
28/10:10am 17.9 19.2 17.1 95 0.5 S 6 7 3 4 - - 0.0
28/10:00am 17.6 18.7 17.0 96 0.4 SSE 7 13 4 7 - - 12.4
28/09:50am 17.5 18.6 17.1 97 0.2 SE 7 9 4 5 - - 12.4
28/09:40am 17.4 18.7 17.1 98 0.2 SE 6 9 3 5 - - 12.4
28/09:30am 17.3 18.3 16.9 97 0.2 S 7 11 4 6 - - 12.2
28/09:20am 17.3 18.6 17.0 98 0.2 S 6 7 3 4 - - 12.2
28/09:10am 17.2 18.2 16.9 98 0.2 S 7 9 4 5 - - 12.0
28/09:00am 17.1 18.3 16.9 99 0.1 S 6 9 3 5 - - 12.0
28/08:50am 17.1 18.1 16.8 98 0.2 S 7 9 4 5 - - 11.8
28/08:40am 17.0 18.2 16.8 99 0.1 S 6 7 3 4 - - 11.6
28/08:30am 16.9 17.8 16.7 99 0.1 SSW 7 9 4 5 - - 11.4
28/08:20am 17.0 18.1 16.7 98 0.2 SSW 6 7 3 4 - - 11.4
28/08:10am 16.9 18.0 16.7 99 0.1 SSW 6 7 3 4 - - 11.4
28/08:00am 16.9 17.8 16.7 99 0.1 SSW 7 11 4 6 - - 11.2
28/07:50am 16.9 18.0 16.7 99 0.1 SSW 6 7 3 4 - - 11.2
28/07:40am 16.9 18.0 16.7 99 0.1 SSW 6 7 3 4 - - 11.2
28/07:30am 16.9 17.8 16.7 99 0.1 SSW 7 9 4 5 - - 11.2
28/07:20am 16.9 18.0 16.7 99 0.1 SSW 6 9 3 5 - - 11.2
28/07:10am 16.8 17.9 16.7 99 0.1 SSW 6 7 3 4 - - 11.2
28/07:00am 16.8 17.9 16.7 99 0.1 SSW 6 9 3 5 - - 11.2
28/06:50am 16.8 17.7 16.7 99 0.1 SSW 7 9 4 5 - - 11.2
28/06:40am 16.8 17.7 16.7 99 0.1 SSW 7 13 4 7 - - 11.2
28/06:30am 16.8 17.7 16.6 99 0.1 SSW 7 9 4 5 - - 11.2
28/06:20am 16.8 17.7 16.6 99 0.1 SSW 7 9 4 5 - - 11.2
28/06:10am 16.8 17.9 16.6 99 0.1 SW 6 9 3 5 - - 11.2
28/06:00am 16.8 17.7 16.6 99 0.1 SSW 7 9 4 5 - - 11.2
28/05:50am 16.8 17.9 16.7 99 0.1 SSW 6 9 3 5 - - 11.0
28/05:40am 16.9 18.4 16.7 99 0.1 S 4 6 2 3 - - 11.0
28/05:30am 16.9 18.1 16.8 99 0.1 S 6 7 3 4 - - 10.8
28/05:20am 16.9 18.1 16.8 99 0.1 SSW 6 7 3 4 - - 10.6
28/05:10am 16.9 18.1 16.8 99 0.1 S 6 9 3 5 - - 10.6
28/05:00am 16.9 17.8 16.7 99 0.1 S 7 11 4 6 - - 10.2
28/04:50am 16.9 18.0 16.7 99 0.1 SSW 6 7 3 4 - - 10.2
28/04:40am 16.9 17.9 16.8 99 0.1 S 7 11 4 6 - - 10.0
28/04:30am 17.0 18.0 16.8 99 0.1 SW 7 13 4 7 - - 9.6
28/04:20am 17.0 18.0 16.8 99 0.1 SSW 7 11 4 6 - - 9.4
28/04:10am 17.0 18.0 16.8 99 0.1 SSW 7 9 4 5 - - 9.2
28/04:00am 16.9 18.1 16.8 99 0.1 SSW 6 9 3 5 - - 9.0
28/03:50am 16.9 18.0 16.7 99 0.1 SSW 6 9 3 5 - - 8.8
28/03:40am 16.9 18.0 16.7 99 0.1 S 6 7 3 4 - - 8.6
28/03:30am 16.8 17.7 16.7 99 0.1 SSW 7 9 4 5 - - 8.4
28/03:20am 16.8 17.7 16.7 99 0.1 SSW 7 11 4 6 - - 8.2
28/03:10am 16.8 17.9 16.7 99 0.1 SSW 6 9 3 5 - - 8.2
28/03:00am 16.8 17.9 16.7 99 0.1 SSW 6 9 3 5 - - 8.0
28/02:50am 16.8 17.7 16.6 99 0.1 S 7 9 4 5 - - 7.8
28/02:40am 16.8 17.7 16.7 99 0.1 SSW 7 11 4 6 - - 7.8
28/02:30am 16.8 17.7 16.6 99 0.1 S 7 11 4 6 - - 7.6
28/02:20am 16.9 17.8 16.7 99 0.1 SSW 7 9 4 5 - - 7.4
28/02:10am 16.9 17.8 16.7 99 0.1 SSW 7 7 4 4 - - 7.0
28/02:00am 17.0 18.0 16.8 99 0.1 SSW 7 9 4 5 - - 7.0
28/01:50am 17.0 18.0 16.8 99 0.1 SSW 7 11 4 6 - - 7.0
28/01:40am 17.1 18.3 16.9 99 0.1 S 6 7 3 4 - - 7.0
28/01:30am 17.1 18.1 16.9 99 0.1 S 7 11 4 6 - - 6.8
28/01:20am 17.1 18.1 16.8 98 0.2 SSW 7 9 4 5 - - 6.6
28/01:00am 17.0 18.2 16.8 99 0.1 S 6 9 3 5 - - 6.2
28/12:50am 17.0 18.0 16.8 99 0.1 SSW 7 11 4 6 - - 6.0
28/12:40am 17.0 18.2 16.8 99 0.1 S 6 7 3 4 - - 5.8
28/12:30am 17.0 18.2 16.8 99 0.1 SSW 6 9 3 5 - - 5.6
28/12:20am 17.0 18.1 16.7 98 0.2 SSW 6 9 3 5 - - 5.6
28/12:00am 17.0 17.9 16.7 98 0.2 SSW 7 9 4 5 - - 5.6
 
Date/Time
EDT
Temp
°C
App
Temp
°C
Dew
Point
°C
Rel
Hum
%
Delta-T
°C
Wind Press
QNH
hPa
Press
MSL
hPa
Rain since
9am
mm
Dir  Spd
km/h
Gust
km/h
Spd
kts
Gust
kts
27/11:50pm 17.0 18.1 16.7 98 0.2 S 6 7 3 4 - - 5.6
27/11:40pm 17.1 18.3 16.8 98 0.2 S 6 9 3 5 - - 5.4
27/11:30pm 17.1 18.1 16.8 98 0.2 S 7 9 4 5 - - 5.4
27/11:20pm 17.1 18.1 16.8 98 0.2 S 7 11 4 6 - - 5.4
27/11:10pm 17.1 18.3 16.8 98 0.2 S 6 7 3 4 - - 5.4
27/11:00pm 17.1 18.3 16.8 98 0.2 S 6 9 3 5 - - 5.2
27/10:50pm 17.1 18.2 16.7 97 0.2 S 6 7 3 4 - - 5.0
27/10:40pm 17.0 18.1 16.7 98 0.2 S 6 11 3 6 - - 5.0
27/10:30pm 17.0 18.1 16.7 98 0.2 S 6 9 3 5 - - 5.0
27/10:20pm 17.0 17.9 16.6 97 0.2 S 7 9 4 5 - - 5.0
27/10:10pm 17.0 18.1 16.7 98 0.2 S 6 7 3 4 - - 4.8
27/10:00pm 17.0 18.1 16.7 98 0.2 S 6 7 3 4 - - 4.6
27/09:50pm 17.1 18.2 16.7 97 0.2 S 6 9 3 5 - - 4.6
27/09:40pm 17.1 18.2 16.7 97 0.2 S 6 9 3 5 - - 4.4
27/09:30pm 17.1 18.0 16.7 97 0.2 S 7 9 4 5 - - 4.4
27/09:20pm 17.1 18.0 16.7 97 0.2 S 7 11 4 6 - - 4.4
27/09:10pm 17.1 18.2 16.7 97 0.2 S 6 9 3 5 - - 4.4
27/09:00pm 17.1 18.0 16.7 97 0.2 S 7 11 4 6 - - 4.4
27/08:50pm 17.1 18.0 16.7 97 0.2 SW 7 9 4 5 - - 4.4
27/08:40pm 17.1 18.0 16.7 97 0.2 SSW 7 9 4 5 - - 4.2
27/08:30pm 17.1 18.2 16.7 97 0.2 SSW 6 9 3 5 - - 4.2
27/08:20pm 17.1 17.6 16.6 97 0.3 SSW 9 11 5 6 - - 4.2
27/08:10pm 17.2 18.1 16.7 97 0.3 SSW 7 9 4 5 - - 4.0
27/08:00pm 17.3 18.4 16.7 96 0.4 SSW 6 7 3 4 - - 4.0
27/07:50pm 17.3 18.2 16.6 96 0.4 SSW 7 11 4 6 - - 3.8
27/07:40pm 17.4 18.3 16.7 96 0.4 SSW 7 11 4 6 - - 3.8
27/07:30pm 17.5 18.1 16.7 95 0.5 SSW 9 17 5 9 - - 3.8
27/07:20pm 17.6 17.8 16.8 95 0.5 SSW 11 15 6 8 - - 3.8
27/07:10pm 17.8 19.1 17.0 95 0.5 SSW 6 7 3 4 - - 3.8
27/07:00pm 17.9 19.2 17.0 94 0.5 S 6 9 3 5 - - 3.8
27/06:50pm 17.9 19.0 17.0 94 0.5 SSW 7 13 4 7 - - 3.8
27/06:40pm 18.0 19.1 17.0 94 0.6 SW 7 9 4 5 - - 3.8
27/06:30pm 18.0 19.3 17.2 95 0.5 SSW 6 9 3 5 - - 3.8
27/06:20pm 18.1 19.4 17.2 94 0.6 SSW 6 7 3 4 - - 3.8
27/06:10pm 18.1 19.2 17.2 94 0.6 SSW 7 9 4 5 - - 3.8
27/06:00pm 18.1 19.4 17.2 94 0.6 SSW 6 11 3 6 - - 3.8
27/05:50pm 18.0 19.4 17.3 96 0.4 S 6 9 3 5 - - 3.8
27/05:40pm 18.0 19.4 17.3 96 0.4 SSW 6 7 3 4 - - 3.8
27/05:30pm 18.1 19.3 17.4 96 0.4 S 7 13 4 7 - - 3.8
27/05:20pm 18.1 19.3 17.4 96 0.4 S 7 9 4 5 - - 3.6
27/05:10pm 18.2 19.5 17.5 96 0.4 S 7 11 4 6 - - 3.6
27/05:00pm 18.4 19.9 17.7 96 0.4 S 6 9 3 5 - - 3.6
27/04:50pm 18.4 19.8 17.7 96 0.4 S 7 11 4 6 - - 3.6
27/04:40pm 18.5 20.1 17.8 96 0.4 S 6 9 3 5 - - 3.4
27/04:30pm 18.6 20.2 17.9 96 0.4 SSE 6 7 3 4 - - 3.0
27/04:20pm 18.7 20.1 17.9 95 0.5 S 7 11 4 6 - - 2.8
27/04:10pm 18.7 20.4 18.0 96 0.4 SSE 6 9 3 5 - - 2.6
27/04:00pm 18.7 19.8 18.0 96 0.4 S 9 13 5 7 - - 2.2
27/03:50pm 18.8 20.3 18.1 96 0.4 S 7 11 4 6 - - 2.2
27/03:40pm 19.0 20.6 18.2 95 0.5 S 7 11 4 6 - - 2.2
27/03:30pm 19.1 20.8 18.4 96 0.4 SSW 7 11 4 6 - - 2.0
27/03:20pm 19.2 21.1 18.5 96 0.4 SSW 6 9 3 5 - - 2.0
27/03:10pm 19.0 20.8 18.3 96 0.4 SSW 6 9 3 5 - - 1.8
27/03:00pm 19.1 20.9 18.3 95 0.5 S 6 9 3 5 - - 1.8
27/02:50pm 19.1 20.9 18.3 95 0.5 SSW 6 9 3 5 - - 1.6
27/02:40pm 19.2 21.0 18.4 95 0.5 S 6 7 3 4 - - 1.4
27/02:30pm 19.3 21.2 18.5 95 0.5 SSW 6 9 3 5 - - 1.4
27/02:20pm 19.3 21.0 18.4 94 0.6 SSW 7 9 4 5 - - 1.4
27/02:10pm 19.4 21.3 18.5 94 0.6 SSW 6 7 3 4 - - 1.2
27/02:00pm 19.4 21.1 18.5 94 0.6 S 7 11 4 6 - - 1.2
27/01:50pm 19.4 21.1 18.5 94 0.6 S 7 9 4 5 - - 1.2
27/01:40pm 19.5 21.4 18.5 94 0.6 S 6 9 3 5 - - 1.2
27/01:30pm 19.5 21.4 18.5 94 0.6 S 6 7 3 4 - - 1.0
27/01:20pm 19.5 21.4 18.6 94 0.6 S 6 9 3 5 - - 1.0
27/01:10pm 19.6 21.5 18.6 94 0.6 S 6 7 3 4 - - 0.8
27/01:00pm 19.6 21.6 18.7 94 0.6 S 6 7 3 4 - - 0.8
27/12:50pm 19.6 21.5 18.6 94 0.6 S 6 9 3 5 - - 0.8
27/12:40pm 19.8 21.6 18.7 93 0.7 S 7 11 4 6 - - 0.8
27/12:30pm 19.9 21.7 18.8 93 0.7 SSW 7 15 4 8 - - 0.8
27/12:20pm 20.0 21.9 18.9 93 0.7 S 7 9 4 5 - - 0.6
27/12:10pm 19.9 21.7 18.8 93 0.7 S 7 9 4 5 - - 0.6
27/12:00pm 19.9 22.0 18.9 94 0.6 S 6 7 3 4 - - 0.6
27/11:50am 19.7 21.2 18.8 94 0.6 S 9 11 5 6 - - 0.6
27/11:40am 19.8 21.8 18.8 94 0.6 S 6 11 3 6 - - 0.6
27/11:30am 19.8 21.9 18.9 94 0.6 S 6 7 3 4 - - 0.4
27/11:20am 19.7 21.5 18.8 94 0.6 S 7 9 4 5 - - 0.4
27/11:10am 19.8 21.6 18.8 94 0.6 SSW 7 9 4 5 - - 0.4
27/11:00am 19.7 21.7 18.8 94 0.6 S 6 7 3 4 - - 0.2
27/10:50am 19.7 21.7 18.8 94 0.6 S 6 9 3 5 - - 0.2
27/10:40am 19.8 21.9 18.9 94 0.6 S 6 7 3 4 - - 0.2
27/10:30am 19.8 22.2 18.8 94 0.6 SSE 4 9 2 5 - - 0.2
27/10:20am 19.7 21.7 18.7 94 0.6 S 6 7 3 4 - - 0.2
27/10:10am 19.6 21.5 18.6 94 0.6 S 6 7 3 4 - - 0.2
27/10:00am 19.7 21.6 18.6 93 0.7 S 6 7 3 4 - - 0.0
27/09:50am 19.7 21.6 18.5 93 0.8 S 6 9 3 5 - - 0.0
27/09:40am 19.8 21.7 18.5 92 0.8 S 6 9 3 5 - - 0.0
27/09:30am 19.9 21.8 18.5 92 0.9 S 6 9 3 5 - - 0.0
27/09:20am 20.0 21.8 18.3 90 1.1 S 6 7 3 4 - - 0.0
27/09:10am 20.0 21.8 18.3 90 1.1 S 6 7 3 4 - - 0.0
27/09:00am 19.9 21.7 18.3 90 1.0 S 6 7 3 4 - - 0.0
27/08:50am 19.9 21.5 18.3 90 1.0 S 7 11 4 6 - - 0.0
27/08:40am 19.9 21.9 18.8 93 0.7 S 6 7 3 4 - - 0.0
27/08:30am 20.0 22.0 18.8 93 0.8 SSW 6 7 3 4 - - 0.0
27/08:20am 20.1 22.5 18.9 93 0.8 S 4 7 2 4 - - 0.0
27/08:10am 20.2 22.0 18.8 92 0.9 S 7 9 4 5 - - 0.0
27/08:00am 20.4 22.5 19.0 92 0.9 S 6 7 3 4 - - 0.0
27/07:50am 20.6 22.6 19.2 92 0.9 S 7 9 4 5 - - 0.0
27/07:40am 21.0 23.2 19.3 90 1.1 S 6 7 3 4 - - 0.0
27/07:30am 21.2 23.4 19.3 89 1.2 S 6 9 3 5 - - 0.0
27/07:20am 21.4 23.7 19.4 88 1.3 SE 6 7 3 4 - - 0.0
27/07:10am 21.5 23.7 19.6 89 1.2 SSE 7 9 4 5 - - 0.0
27/07:00am 21.6 23.9 19.8 89 1.2 SSE 7 11 4 6 - - 0.0
27/06:50am 21.8 24.9 20.2 91 1.0 S 4 7 2 4 - - 0.0
27/06:40am 22.0 25.0 20.0 88 1.3 SSE 4 6 2 3 - - 0.0
27/06:30am 22.1 25.1 20.0 88 1.4 S 4 6 2 3 - - 0.0
27/06:20am 22.2 24.5 19.9 87 1.5 S 7 9 4 5 - - 0.0
27/06:10am 22.2 24.7 19.8 86 1.6 SSW 6 7 3 4 - - 0.0
27/06:00am 22.3 24.7 19.7 85 1.7 SSW 6 9 3 5 - - 0.0
27/05:50am 22.3 25.1 19.7 85 1.7 SSW 4 7 2 4 - - 0.0
27/05:40am 22.3 24.7 19.6 85 1.7 SSW 6 7 3 4 - - 0.0
27/05:30am 22.3 24.7 19.6 85 1.7 S 6 7 3 4 - - 0.0
27/05:20am 22.3 25.1 19.6 85 1.7 SSW 4 6 2 3 - - 0.0
27/05:10am 22.3 24.7 19.6 85 1.7 SSW 6 7 3 4 - - 0.0
27/05:00am 22.3 25.1 19.7 85 1.7 SSW 4 4 2 2 - - 0.0
27/04:50am 22.3 25.1 19.6 85 1.7 SSW 4 7 2 4 - - 0.0
27/04:40am 22.3 25.1 19.6 85 1.7 SSW 4 6 2 3 - - 0.0
27/04:30am 22.4 24.8 19.6 84 1.8 SSW 6 11 3 6 - - 0.0
27/04:20am 22.4 25.2 19.7 85 1.7 SSW 4 6 2 3 - - 0.0
27/04:10am 22.4 24.8 19.6 84 1.8 S 6 7 3 4 - - 0.0
27/04:00am 22.5 24.9 19.6 84 1.9 S 6 7 3 4 - - 0.0
27/03:50am 22.5 24.8 19.5 83 1.9 S 6 9 3 5 - - 0.0
27/03:40am 22.5 24.8 19.5 83 1.9 S 6 7 3 4 - - 0.0
27/03:30am 22.5 24.8 19.5 83 1.9 S 6 7 3 4 - - 0.0
27/03:20am 22.5 24.6 19.4 82 2.0 S 7 11 4 6 - - 0.0
27/03:10am 22.6 24.8 19.2 81 2.2 S 6 7 3 4 - - 0.0
27/03:00am 22.7 24.9 19.2 80 2.2 SSW 6 9 3 5 - - 0.0
27/02:50am 22.8 25.3 19.1 79 2.4 S 4 7 2 4 - - 0.0
27/02:40am 22.9 25.4 19.1 79 2.4 S 4 6 2 3 - - 0.0
27/02:30am 23.0 25.5 19.1 78 2.5 S 4 9 2 5 - - 0.0
27/02:20am 23.2 25.7 19.1 78 2.6 S 4 7 2 4 - - 0.0
27/02:10am 23.3 25.7 18.9 76 2.8 S 4 7 2 4 - - 0.0
27/02:00am 23.4 25.4 18.8 75 2.9 S 6 7 3 4 - - 0.0
27/01:50am 23.6 25.6 18.8 74 3.1 SSE 6 9 3 5 - - 0.0
27/01:40am 24.0 25.9 18.6 72 3.5 S 6 9 3 5 - - 0.0
27/01:30am 24.4 26.2 18.3 69 3.9 SSE 6 7 3 4 - - 0.0
27/01:20am 24.7 26.4 18.0 66 4.3 SE 6 6 3 3 - - 0.0
27/01:10am 24.9 27.0 18.0 65 4.4 SE 4 6 2 3 - - 0.0
27/01:00am 25.2 27.1 17.7 63 4.8 SE 4 6 2 3 - - 0.0
27/12:50am 25.4 27.7 17.7 62 4.9 SSE 2 4 1 2 - - 0.0
27/12:40am 25.6 27.9 17.6 61 5.1 SE 2 6 1 3 - - 0.0
27/12:30am 25.8 27.3 17.6 60 5.2 SSE 6 9 3 5 - - 0.0
27/12:20am 25.9 27.3 17.4 59 5.4 S 6 7 3 4 - - 0.0
27/12:10am 26.1 27.5 17.7 60 5.3 SSW 7 11 4 6 - - 0.0
27/12:00am 26.4 27.8 17.4 57 5.7 SSW 6 7 3 4 - - 0.0
 
Date/Time
EDT
Temp
°C
App
Temp
°C
Dew
Point
°C
Rel
Hum
%
Delta-T
°C
Wind Press
QNH
hPa
Press
MSL
hPa
Rain since
9am
mm
Dir  Spd
km/h
Gust
km/h
Spd
kts
Gust
kts
26/11:50pm 26.7 27.8 17.2 56 6.0 S 7 9 4 5 - - 0.0
26/11:40pm 26.9 28.2 17.2 55 6.1 S 6 11 3 6 - - 0.0
26/11:30pm 27.1 28.2 17.0 54 6.4 SSE 7 9 4 5 - - 0.0
26/11:20pm 27.1 28.1 16.8 53 6.5 S 7 11 4 6 - - 0.0
26/11:10pm 27.3 28.8 17.5 55 6.2 SSW 6 11 3 6 - - 0.0
26/11:00pm 27.8 28.8 16.4 50 7.1 S 6 7 3 4 - - 0.0
26/10:50pm 27.9 29.0 16.6 50 7.1 S 6 9 3 5 - - 0.0
26/10:40pm 28.0 29.5 16.6 50 7.2 SSE 4 7 2 4 - - 0.0
26/10:30pm 28.1 29.2 16.6 49 7.2 SE 6 7 3 4 - - 0.0
26/10:20pm 28.0 29.4 16.5 49 7.2 SE 4 7 2 4 - - 0.0
26/10:10pm 28.3 29.8 16.7 49 7.3 SE 4 6 2 3 - - 0.0
26/10:00pm 28.7 30.1 16.5 47 7.7 SE 4 6 2 3 - - 0.0
26/09:50pm 29.0 30.2 15.9 45 8.2 S 4 7 2 4 - - 0.0
26/09:40pm 29.2 30.5 16.1 45 8.2 SSW 4 7 2 4 - - 0.0
26/09:30pm 29.5 30.8 16.1 44 8.4 S 4 6 2 3 - - 0.0
26/09:20pm 29.9 31.2 16.1 43 8.7 S 4 4 2 2 - - 0.0
26/09:10pm 30.3 31.2 16.2 42 8.9 SSW 6 7 3 4 - - 0.0
26/09:00pm 30.9 31.5 15.7 39 9.5 SW 7 11 4 6 - - 0.0
26/08:50pm 32.0 32.7 15.6 37 10.3 SSW 6 13 3 7 - - 0.0
26/08:40pm 32.0 32.6 13.1 31 11.4 SSW 2 6 1 3 - - 0.0
26/08:30pm 31.9 32.9 13.2 32 11.3 CALM 0 0 0 0 - - 0.0
26/08:20pm 32.1 33.3 13.8 33 11.2 CALM 0 0 0 0 - - 0.0
26/08:10pm 32.4 33.4 13.2 31 11.7 CALM 0 2 0 1 - - 0.0
26/08:00pm 32.5 33.5 13.2 31 11.7 CALM 0 2 0 1 - - 0.0
26/07:50pm 32.6 33.5 14.0 32 11.4 N 2 4 1 2 - - 0.0
26/07:40pm 32.7 34.2 14.7 33 11.2 CALM 0 2 0 1 - - 0.0
26/07:30pm 32.9 34.4 15.7 35 10.9 NNW 2 2 1 1 - - 0.0
26/07:20pm 33.2 34.8 16.0 35 10.9 N 2 2 1 1 - - 0.0
26/07:10pm 33.5 35.0 15.7 34 11.3 N 2 6 1 3 - - 0.0
26/07:00pm 33.8 34.5 14.4 31 12.1 N 4 4 2 2 - - 0.0
26/06:50pm 33.8 34.5 14.6 31 12.0 N 4 4 2 2 - - 0.0
26/06:40pm 34.0 35.1 15.5 33 11.7 N 4 4 2 2 - - 0.0
26/06:30pm 34.2 35.3 15.6 32 11.8 N 4 6 2 3 - - 0.0
26/06:20pm 34.3 35.4 14.5 30 12.3 N 2 4 1 2 - - 0.0
26/06:10pm 34.3 34.8 15.1 31 12.1 N 6 7 3 4 - - 0.0
26/06:00pm 34.4 34.6 14.2 29 12.5 N 6 6 3 3 - - 0.0
26/05:50pm 34.9 36.1 15.8 32 12.2 N 4 7 2 4 - - 0.0
26/05:40pm 35.1 35.2 14.0 28 13.1 NNW 6 9 3 5 - - 0.0
26/05:30pm 35.3 35.2 13.8 27 13.3 N 7 11 4 6 - - 0.0
26/05:20pm 36.2 36.8 15.2 28 13.3 NW 6 7 3 4 - - 0.0
26/05:10pm 37.2 37.0 13.7 24 14.6 WNW 7 11 4 6 - - 0.0
26/05:00pm 37.8 37.7 13.8 24 15.0 NNW 7 11 4 6 - - 0.0
26/04:50pm 37.6 36.9 13.1 23 15.1 NNW 9 13 5 7 - - 0.0
26/04:40pm 35.8 34.8 12.3 24 14.3 N 9 13 5 7 - - 0.0
26/04:30pm 36.8 35.6 12.8 23 14.7 N 11 13 6 7 - - 0.0
26/04:20pm 36.9 36.4 12.8 23 14.8 N 7 11 4 6 - - 0.0
26/04:10pm 36.1 35.5 12.2 23 14.5 N 7 11 4 6 - - 0.0
26/04:00pm 36.5 35.5 13.3 25 14.3 N 11 17 6 9 - - 0.0
26/03:50pm 37.9 36.5 12.1 21 15.7 NNW 11 15 6 8 - - 0.0
26/03:40pm 37.1 36.8 14.4 26 14.3 N 9 13 5 7 - - 0.0
26/03:30pm 36.3 35.1 12.8 24 14.4 N 11 15 6 8 - - 0.0
26/03:20pm 37.2 35.5 12.5 22 15.1 N 13 17 7 9 - - 0.0
26/03:00pm 37.1 36.0 13.1 23 14.8 NNW 11 13 6 7 - - 0.0
26/02:50pm 37.6 37.1 12.6 22 15.3 NNW 7 11 4 6 - - 0.0
26/02:40pm 36.9 35.5 12.3 22 15.0 N 11 13 6 7 - - 0.0
26/02:30pm 36.6 34.8 12.2 23 14.8 N 13 15 7 8 - - 0.0
26/02:20pm 36.4 34.7 12.6 24 14.5 N 13 20 7 11 - - 0.0
26/02:10pm 35.8 34.4 12.2 24 14.3 N 11 13 6 7 - - 0.0
26/02:00pm 35.6 34.2 12.3 24 14.1 N 11 17 6 9 - - 0.0
26/01:50pm 36.3 36.3 15.1 28 13.4 NW 9 13 5 7 - - 0.0
26/01:40pm 36.6 36.2 14.2 26 14.0 N 9 11 5 6 - - 0.0
26/01:30pm 36.4 34.9 12.0 23 14.8 N 11 19 6 10 - - 0.0
26/01:20pm 35.9 34.7 14.0 27 13.6 N 13 17 7 9 - - 0.0
26/01:10pm 35.8 34.2 11.7 23 14.5 N 11 15 6 8 - - 0.0
26/01:00pm 35.6 34.4 12.7 25 14.0 N 11 19 6 10 - - 0.0
26/12:50pm 35.2 33.5 12.5 25 13.8 N 13 19 7 10 - - 0.0
26/12:40pm 35.0 33.7 12.6 26 13.6 NNW 11 13 6 7 - - 0.0
26/12:30pm 34.7 33.4 12.4 26 13.5 NNW 11 13 6 7 - - 0.0
26/12:20pm 34.5 33.2 13.7 28 12.8 NNW 13 19 7 10 - - 0.0
26/12:10pm 34.6 32.7 11.7 25 13.7 N 13 17 7 9 - - 0.0
26/12:00pm 34.6 33.1 12.0 25 13.6 NW 11 17 6 9 - - 0.0
26/11:50am 34.4 33.4 12.3 26 13.3 NW 9 15 5 8 - - 0.0
26/11:40am 34.0 32.6 12.2 26 13.1 N 11 17 6 9 - - 0.0
26/11:30am 33.7 32.1 12.9 28 12.6 N 13 15 7 8 - - 0.0
26/11:20am 33.5 32.1 13.3 29 12.3 N 13 17 7 9 - - 0.0
26/11:10am 33.1 31.3 12.2 28 12.5 NNW 13 19 7 10 - - 0.0
26/11:00am 33.0 31.1 11.9 27 12.6 NNW 13 17 7 9 - - 0.0
26/10:50am 32.6 31.0 12.8 30 12.0 NNW 13 15 7 8 - - 0.0
26/10:40am 32.4 31.5 13.7 32 11.4 NNW 11 17 6 9 - - 0.0
26/10:30am 32.0 30.8 13.9 33 11.1 NNW 13 15 7 8 - - 0.0
26/10:20am 31.7 30.2 13.1 32 11.2 NNW 13 17 7 9 - - 0.0
26/10:00am 31.3 29.9 13.3 33 10.9 NNW 13 17 7 9 - - 0.0
26/09:50am 31.3 30.3 13.4 33 10.9 N 11 13 6 7 - - 0.0
26/09:40am 30.9 30.4 13.8 35 10.4 N 9 11 5 6 - - 0.0
26/09:30am 30.7 30.1 13.4 34 10.5 NNW 9 13 5 7 - - 0.0
26/09:20am 30.3 29.8 14.8 39 9.6 NNW 11 13 6 7 - - 0.0
26/09:10am 30.1 29.3 14.0 37 9.8 N 11 15 6 8 - - 0.0
26/09:00am 29.9 29.5 14.2 38 9.6 NNW 9 13 5 7 - - 0.0
26/08:50am 29.6 29.0 14.5 39 9.3 N 11 13 6 7 - - 0.0
26/08:40am 29.2 28.1 13.0 37 9.7 NNW 11 15 6 8 - - 0.0
26/08:30am 28.6 27.9 13.3 39 9.2 N 9 11 5 6 - - 0.0
26/08:20am 27.9 27.5 14.0 42 8.4 N 9 13 5 7 - - 0.0
26/08:10am 27.4 26.9 13.7 43 8.2 N 9 11 5 6 - - 0.0
26/08:00am 26.9 26.6 13.2 42 8.1 N 7 9 4 5 - - 0.0
26/07:50am 26.3 26.2 13.8 46 7.5 N 7 9 4 5 - - 0.0
26/07:40am 25.7 25.4 13.3 46 7.3 N 7 9 4 5 - - 0.0
26/07:30am 24.8 24.7 13.9 50 6.5 N 7 9 4 5 - - 0.0
26/07:20am 24.1 24.2 14.5 55 5.8 N 7 9 4 5 - - 0.0
26/07:10am 23.9 23.8 14.0 54 5.9 NNE 7 9 4 5 - - 0.0
26/07:00am 23.3 22.9 14.2 56 5.4 N 9 9 5 5 - - 0.0
26/06:50am 22.8 22.5 14.3 58 5.1 NNE 9 9 5 5 - - 0.0
26/06:40am 22.5 22.8 15.1 63 4.5 NNE 7 9 4 5 - - 0.0
26/06:30am 22.4 22.7 15.1 63 4.4 N 7 9 4 5 - - 0.0
26/06:20am 22.3 22.0 15.4 65 4.2 NNE 11 11 6 6 - - 0.0
26/06:10am 22.1 22.2 15.4 65 4.0 NNE 9 11 5 6 - - 0.0
26/06:00am 22.0 22.3 15.9 68 3.7 NNE 9 9 5 5 - - 0.0
26/05:50am 21.8 22.4 15.8 68 3.6 N 7 9 4 5 - - 0.0
26/05:40am 22.1 22.4 15.9 68 3.8 NNE 9 9 5 5 - - 0.0
26/05:30am 22.0 22.3 16.1 69 3.6 NNE 9 9 5 5 - - 0.0
26/05:20am 21.7 22.6 16.5 72 3.2 NNE 7 9 4 5 - - 0.0
26/05:10am 21.7 22.6 16.5 72 3.2 NNE 7 7 4 4 - - 0.0
26/05:00am 21.8 22.8 16.9 73 3.0 NNE 7 9 4 5 - - 0.0
26/04:50am 21.8 22.5 17.0 74 3.0 NNE 9 9 5 5 - - 0.0
26/04:40am 21.7 22.5 17.2 75 2.8 NNE 9 9 5 5 - - 0.0
26/04:30am 21.7 22.9 17.4 76 2.7 NNE 7 7 4 4 - - 0.0
26/04:20am 21.8 22.7 17.5 76 2.7 N 9 9 5 5 - - 0.0
26/04:10am 21.8 22.6 17.4 76 2.7 NNE 9 9 5 5 - - 0.0
26/04:00am 21.3 22.5 17.4 78 2.4 NNE 7 9 4 5 - - 0.0
26/03:50am 21.1 22.4 17.5 80 2.2 NNE 7 7 4 4 - - 0.0
26/03:40am 21.0 22.5 17.5 80 2.2 NNE 6 7 3 4 - - 0.0
26/03:30am 21.2 22.7 17.5 79 2.3 N 6 7 3 4 - - 0.0
26/03:20am 21.3 22.7 17.4 78 2.4 NNE 6 6 3 3 - - 0.0

Other formats

Comma delimited format used in spreadsheet applications
http://www.bom.gov.au/fwo/IDN60801/IDN60801.99752.axf

JavaScript Object Notation format (JSON) in row-major order
http://www.bom.gov.au/fwo/IDN60801/IDN60801.99752.json

Data quality

Most of these data are generated automatically and are frequently updated. Quality checks on data are not normally performed. It is possible for incorrect values to appear. Refer to information at About Latest Weather Observations and please check the disclaimer before using these data.